Time;durP1;ratioP1;P1;durP2;ratioP2;P2;SDS_P1;SDS_P2;PMS_P1;PMS_P2;Temp;Humidity;BMP_temperature;BMP_pressure;BME280_temperature;BME280_humidity;BME280_pressure;Samples;Min_cycle;Max_cycle;Signal;HPM_P1;HPM_P2
2020/12/09 00:00:00;;;;;;;136.03;64.97;;;;;;;5.69;98.13;94844.16;5138555;27;20445;-83
2020/12/09 00:02:27;;;;;;;126.00;61.87;;;;;;;5.63;97.37;94836.78;5138492;27;20449;-82
2020/12/09 00:04:53;;;;;;;131.10;62.60;;;;;;;5.67;97.39;94838.22;5138213;27;20829;-83
2020/12/09 00:07:19;;;;;;;124.87;60.87;;;;;;;5.68;97.07;94832.09;5137970;27;20446;-83
2020/12/09 00:09:46;;;;;;;130.73;64.10;;;;;;;5.69;97.07;94828.53;5138781;27;20425;-83
2020/12/09 00:12:15;;;;;;;118.37;59.90;;;;;;;5.65;96.71;94822.72;5138454;27;20943;-83
2020/12/09 00:14:41;;;;;;;149.87;61.80;;;;;;;5.62;97.40;94822.91;5137962;27;20434;-83
2020/12/09 00:17:07;;;;;;;118.30;59.40;;;;;;;5.52;97.21;94830.50;5137967;27;20438;-83
2020/12/09 00:19:34;;;;;;;112.70;55.27;;;;;;;5.43;98.07;94823.28;5137813;27;20461;-82
2020/12/09 00:22:00;;;;;;;110.43;54.00;;;;;;;5.41;97.97;94832.97;5138337;27;20439;-83
2020/12/09 00:24:26;;;;;;;105.27;52.37;;;;;;;5.43;99.01;94828.50;5138225;27;20469;-83
2020/12/09 00:26:53;;;;;;;115.37;55.07;;;;;;;5.48;99.56;94829.03;5137939;27;20433;-83
2020/12/09 00:29:20;;;;;;;109.93;53.67;;;;;;;5.50;98.93;94821.16;5137817;27;20442;-83
2020/12/09 00:31:46;;;;;;;102.43;54.17;;;;;;;5.54;99.14;94826.03;5137839;27;20796;-83
2020/12/09 00:34:13;;;;;;;109.03;56.90;;;;;;;5.55;98.38;94827.72;5137513;27;20950;-83
2020/12/09 00:36:39;;;;;;;95.50;49.63;;;;;;;5.52;98.24;94817.50;5137983;27;20445;-83
2020/12/09 00:39:06;;;;;;;106.77;51.47;;;;;;;5.45;98.49;94811.00;5136886;27;20492;-83
2020/12/09 00:41:32;;;;;;;106.97;53.03;;;;;;;5.48;99.29;94823.00;5137543;27;20440;-83
2020/12/09 00:43:58;;;;;;;87.43;47.97;;;;;;;5.49;99.61;94817.72;5137429;27;20433;-83
2020/12/09 00:46:27;;;;;;;107.87;55.70;;;;;;;5.54;99.78;94822.59;5137381;27;20434;-83
2020/12/09 00:48:54;;;;;;;86.33;49.03;;;;;;;5.61;99.18;94816.06;5137170;27;20438;-83
2020/12/09 00:51:22;;;;;;;96.20;51.47;;;;;;;5.58;98.38;94824.06;5137148;27;20425;-83
2020/12/09 00:53:48;;;;;;;97.23;51.87;;;;;;;5.58;97.80;94821.47;5137644;27;20444;-83
2020/12/09 00:56:15;;;;;;;126.03;57.77;;;;;;;5.50;98.55;94810.72;5137222;27;20445;-83
2020/12/09 00:58:41;;;;;;;90.83;48.00;;;;;;;5.37;99.89;94808.09;5137543;27;20925;-83
2020/12/09 01:01:09;;;;;;;83.53;45.10;;;;;;;5.45;100.00;94808.41;5137444;27;20426;-83
2020/12/09 01:03:37;;;;;;;75.77;42.17;;;;;;;5.35;100.00;94802.16;5137248;27;20429;-83
2020/12/09 01:06:04;;;;;;;75.10;41.73;;;;;;;4.93;100.00;94796.22;5137077;27;20524;-83
2020/12/09 01:08:32;;;;;;;68.73;34.87;;;;;;;4.96;100.00;94792.59;5137265;27;20434;-83
2020/12/09 01:10:58;;;;;;;58.10;31.37;;;;;;;4.92;100.00;94791.97;5137001;27;20792;-83
2020/12/09 01:13:25;;;;;;;75.07;41.53;;;;;;;5.19;100.00;94802.31;5137149;27;20510;-83
2020/12/09 01:15:51;;;;;;;58.93;35.37;;;;;;;5.16;100.00;94796.47;5137011;27;20444;-83
2020/12/09 01:18:20;;;;;;;64.03;38.30;;;;;;;5.29;100.00;94790.41;5136985;27;20480;-83
2020/12/09 01:20:47;;;;;;;70.17;39.73;;;;;;;5.46;100.00;94786.66;5136811;27;20517;-83
2020/12/09 01:23:14;;;;;;;71.23;38.50;;;;;;;5.61;100.00;94784.81;5136852;27;20441;-83
2020/12/09 01:25:41;;;;;;;52.70;32.00;;;;;;;5.57;100.00;94776.38;5136498;27;20484;-83
2020/12/09 01:28:07;;;;;;;51.77;27.73;;;;;;;5.42;100.00;94772.19;5136431;27;20448;-83
2020/12/09 01:30:34;;;;;;;54.77;28.10;;;;;;;5.51;100.00;94776.81;5137188;27;20465;-83
2020/12/09 01:33:00;;;;;;;44.27;24.53;;;;;;;5.53;100.00;94782.72;5136654;27;20456;-83
2020/12/09 01:35:27;;;;;;;43.50;23.13;;;;;;;5.72;100.00;94777.09;5137077;27;20446;-83
2020/12/09 01:37:54;;;;;;;41.77;24.87;;;;;;;5.84;100.00;94776.28;5136400;27;21039;-83
2020/12/09 01:40:21;;;;;;;42.27;25.53;;;;;;;5.88;100.00;94764.72;5136548;27;20442;-83
2020/12/09 01:42:49;;;;;;;40.23;22.87;;;;;;;5.97;100.00;94765.88;5136578;27;20425;-83
2020/12/09 01:45:16;;;;;;;41.07;22.33;;;;;;;6.11;100.00;94764.94;5136263;27;20482;-83
2020/12/09 01:47:45;;;;;;;40.37;23.20;;;;;;;6.18;100.00;94754.00;5136453;27;20465;-83
2020/12/09 01:50:12;;;;;;;45.97;24.23;;;;;;;6.20;100.00;94766.91;5136274;27;20429;-83
2020/12/09 01:52:39;;;;;;;40.83;22.67;;;;;;;6.28;100.00;94769.81;5136256;27;20437;-84
2020/12/09 01:55:07;;;;;;;41.23;24.10;;;;;;;6.36;100.00;94771.88;5135837;27;20446;-83
2020/12/09 01:57:33;;;;;;;42.33;22.50;;;;;;;6.44;100.00;94777.41;5135775;27;20956;-83
2020/12/09 01:59:59;;;;;;;40.90;22.40;;;;;;;6.38;100.00;94770.84;5136197;27;20422;-83
2020/12/09 02:02:26;;;;;;;45.20;24.67;;;;;;;6.47;100.00;94766.75;5136084;27;20432;-83
2020/12/09 02:04:53;;;;;;;42.20;25.20;;;;;;;6.47;100.00;94762.38;5135968;27;20481;-83
2020/12/09 02:07:21;;;;;;;54.27;28.10;;;;;;;6.48;100.00;94760.59;5136079;27;20778;-84
2020/12/09 02:09:57;;;;;;;38.40;21.60;;;;;;;6.45;100.00;94750.38;5135734;27;20426;-83
2020/12/09 02:12:24;;;;;;;34.60;20.60;;;;;;;6.38;100.00;94752.59;5136013;27;20453;-83
2020/12/09 02:14:51;;;;;;;34.33;20.10;;;;;;;6.27;100.00;94743.84;5135751;27;20449;-83
2020/12/09 02:17:17;;;;;;;31.13;18.40;;;;;;;6.09;100.00;94748.59;5135821;27;20442;-83
2020/12/09 02:19:43;;;;;;;33.00;19.13;;;;;;;5.90;100.00;94744.66;5135681;27;20461;-83
2020/12/09 02:22:12;;;;;;;45.57;21.30;;;;;;;6.03;100.00;94749.84;5135755;27;20535;-83
2020/12/09 02:24:39;;;;;;;33.83;18.80;;;;;;;5.90;100.00;94739.44;5135641;27;20480;-83
2020/12/09 02:27:05;;;;;;;34.67;18.07;;;;;;;5.92;100.00;94741.94;5135915;27;20441;-83
2020/12/09 02:29:32;;;;;;;39.07;19.70;;;;;;;5.96;100.00;94753.81;5135835;27;20426;-83
2020/12/09 02:31:58;;;;;;;29.33;18.80;;;;;;;6.02;100.00;94752.53;5135805;27;20796;-83
2020/12/09 02:34:24;;;;;;;30.57;18.70;;;;;;;6.19;100.00;94760.03;5135591;27;20433;-83
2020/12/09 02:36:51;;;;;;;34.43;21.57;;;;;;;6.31;100.00;94760.94;5135358;27;20426;-83
2020/12/09 02:39:27;;;;;;;33.20;19.70;;;;;;;6.39;100.00;94756.03;5135199;27;20983;-83
2020/12/09 02:41:53;;;;;;;32.60;19.80;;;;;;;6.36;100.00;94759.69;5135339;27;20822;-83
2020/12/09 02:44:19;;;;;;;30.43;17.47;;;;;;;6.17;100.00;94756.72;5135182;27;20433;-83
2020/12/09 02:46:46;;;;;;;23.70;15.50;;;;;;;6.31;100.00;94753.13;5135381;27;20445;-83
2020/12/09 02:49:12;;;;;;;22.90;14.30;;;;;;;6.26;100.00;94752.63;5135894;27;20436;-83
2020/12/09 02:51:38;;;;;;;23.40;16.70;;;;;;;6.30;100.00;94743.63;5135701;27;20430;-83
2020/12/09 02:54:04;;;;;;;24.33;16.40;;;;;;;6.07;100.00;94750.44;5135034;27;20955;-83
2020/12/09 02:56:32;;;;;;;23.10;15.30;;;;;;;6.26;100.00;94750.00;5135068;27;20430;-83
2020/12/09 02:58:58;;;;;;;21.70;15.40;;;;;;;6.40;100.00;94755.09;5135262;27;20933;-83
2020/12/09 03:01:24;;;;;;;22.17;16.30;;;;;;;6.26;100.00;94763.88;5135020;27;20943;-83
2020/12/09 03:03:51;;;;;;;23.63;15.30;;;;;;;6.39;100.00;94764.69;5135165;28;20434;-83
2020/12/09 03:06:17;;;;;;;26.80;16.50;;;;;;;6.31;100.00;94766.16;5135180;28;20477;-83
2020/12/09 03:08:44;;;;;;;21.60;13.87;;;;;;;6.39;100.00;94769.06;5135186;28;20445;-83
2020/12/09 03:11:10;;;;;;;21.53;13.90;;;;;;;6.27;100.00;94777.72;5134957;28;20925;-83
2020/12/09 03:13:38;;;;;;;21.03;15.00;;;;;;;6.46;100.00;94771.13;5135123;28;20766;-83
2020/12/09 03:16:04;;;;;;;20.20;15.00;;;;;;;6.51;100.00;94776.84;5134962;28;20441;-83
2020/12/09 03:18:30;;;;;;;25.03;14.17;;;;;;;6.64;100.00;94779.41;5134940;27;20458;-83
2020/12/09 03:20:57;;;;;;;21.50;13.87;;;;;;;6.65;100.00;94775.03;5135242;28;20434;-83
2020/12/09 03:23:23;;;;;;;18.83;13.53;;;;;;;6.72;100.00;94774.50;5134693;28;20470;-83
2020/12/09 03:25:49;;;;;;;19.07;12.20;;;;;;;6.72;100.00;94779.72;5134838;28;20473;-83
2020/12/09 03:28:16;;;;;;;16.53;11.37;;;;;;;6.66;100.00;94767.13;5135320;28;20441;-83
2020/12/09 03:30:43;;;;;;;20.00;11.70;;;;;;;6.56;100.00;94768.69;5135334;28;20789;-83
2020/12/09 03:33:09;;;;;;;16.73;12.40;;;;;;;6.65;100.00;94767.19;5134741;28;20935;-83
2020/12/09 03:35:36;;;;;;;21.43;13.37;;;;;;;6.60;100.00;94772.75;5134670;28;20435;-83
2020/12/09 03:38:02;;;;;;;21.00;14.70;;;;;;;6.46;100.00;94778.13;5134787;28;20462;-83
2020/12/09 03:40:28;;;;;;;21.77;14.13;;;;;;;6.26;100.00;94770.84;5134629;28;20438;-83
2020/12/09 03:42:55;;;;;;;22.13;14.37;;;;;;;6.50;100.00;94766.53;5135153;28;20443;-83
2020/12/09 03:45:22;;;;;;;21.73;13.20;;;;;;;6.53;100.00;94767.13;5134471;28;20473;-83
2020/12/09 03:47:50;;;;;;;25.63;15.57;;;;;;;6.36;100.00;94769.25;5134887;28;20441;-83
2020/12/09 03:50:16;;;;;;;20.67;14.03;;;;;;;6.24;100.00;94773.56;5135073;28;20430;-83
2020/12/09 03:52:42;;;;;;;31.90;18.27;;;;;;;6.22;100.00;94758.03;5134695;28;20441;-83
2020/12/09 03:55:09;;;;;;;25.88;16.00;;;;;;;6.43;100.00;94760.94;5133861;28;20425;-83
2020/12/09 03:57:35;;;;;;;22.50;15.10;;;;;;;6.55;100.00;94756.59;5134872;28;20248;-83
2020/12/09 04:00:01;;;;;;;21.10;13.83;;;;;;;6.44;100.00;94756.53;5134364;28;20931;-83
2020/12/09 04:02:28;;;;;;;19.70;12.40;;;;;;;6.18;100.00;94756.59;5134482;28;20433;-83
2020/12/09 04:04:55;;;;;;;26.33;15.13;;;;;;;6.38;100.00;94746.56;5134563;28;20477;-83
2020/12/09 04:07:21;;;;;;;23.10;15.50;;;;;;;6.48;100.00;94739.75;5134451;28;20516;-84
2020/12/09 04:09:48;;;;;;;20.40;12.90;;;;;;;6.21;100.00;94756.38;5134620;28;20450;-83
2020/12/09 04:12:14;;;;;;;22.67;11.87;;;;;;;6.03;100.00;94752.44;5134348;28;20444;-83
2020/12/09 04:14:40;;;;;;;21.60;12.27;;;;;;;6.04;100.00;94761.09;5135819;27;20532;-83
2020/12/09 04:17:07;;;;;;;23.20;15.37;;;;;;;6.03;100.00;94754.22;5138272;27;20801;-83
2020/12/09 04:19:33;;;;;;;19.93;12.50;;;;;;;5.97;100.00;94754.63;5138448;27;20445;-83
2020/12/09 04:22:00;;;;;;;21.23;14.10;;;;;;;5.96;100.00;94750.38;5137993;27;20445;-83
2020/12/09 04:24:27;;;;;;;22.63;14.07;;;;;;;5.99;100.00;94753.59;5138607;27;20444;-83
2020/12/09 04:26:53;;;;;;;23.43;15.10;;;;;;;6.18;100.00;94759.19;5138099;27;20442;-83
2020/12/09 04:29:19;;;;;;;20.93;12.07;;;;;;;6.19;100.00;94755.66;5138416;27;20434;-83
2020/12/09 04:31:46;;;;;;;20.87;13.50;;;;;;;6.02;100.00;94755.97;5137913;27;20434;-83
2020/12/09 04:34:12;;;;;;;18.97;13.67;;;;;;;6.07;100.00;94746.09;5137948;27;20463;-83
2020/12/09 04:36:39;;;;;;;23.67;13.77;;;;;;;5.95;100.00;94746.94;5137926;27;20803;-83
2020/12/09 04:39:06;;;;;;;24.87;14.80;;;;;;;6.00;100.00;94734.41;5137566;27;20465;-83
2020/12/09 04:41:33;;;;;;;16.27;12.00;;;;;;;6.03;100.00;94731.59;5137681;27;20430;-83
2020/12/09 04:43:59;;;;;;;19.37;13.17;;;;;;;6.08;100.00;94726.09;5137413;27;20477;-83
2020/12/09 04:46:26;;;;;;;17.80;12.90;;;;;;;6.09;100.00;94732.97;5137583;27;20984;-83
2020/12/09 04:48:57;;;;;;;19.77;13.97;;;;;;;6.15;100.00;94733.38;5137366;27;20440;-83
2020/12/09 04:51:59;;;;;;;12.30;9.60;;;;;;;6.04;100.00;94746.28;5137639;27;20462;-83
2020/12/09 04:54:36;;;;;;;20.33;13.13;;;;;;;6.13;100.00;94743.06;5137269;27;20932;-83
2020/12/09 04:57:10;;;;;;;13.67;9.03;;;;;;;6.13;100.00;94735.25;5137670;27;20498;-84
2020/12/09 04:59:40;;;;;;;21.07;11.50;;;;;;;6.07;100.00;94730.47;5137575;27;20421;-83
2020/12/09 05:02:08;;;;;;;19.90;12.50;;;;;;;6.20;100.00;94735.66;5137406;27;20515;-83
2020/12/09 05:04:36;;;;;;;17.30;13.67;;;;;;;5.95;100.00;94728.72;5137590;27;20429;-83
2020/12/09 05:07:08;;;;;;;18.20;12.33;;;;;;;5.98;100.00;94731.09;5137115;27;20456;-83
2020/12/09 05:09:42;;;;;;;21.27;11.70;;;;;;;5.94;100.00;94729.66;5137095;27;20430;-83
2020/12/09 05:12:11;;;;;;;17.93;11.43;;;;;;;6.03;100.00;94734.22;5137331;27;20898;-83
2020/12/09 05:14:43;;;;;;;14.57;10.47;;;;;;;6.00;100.00;94734.41;5137063;27;20817;-83
2020/12/09 05:17:14;;;;;;;13.67;11.23;;;;;;;6.01;100.00;94733.47;5136612;27;20458;-83
2020/12/09 05:19:42;;;;;;;22.43;13.73;;;;;;;6.09;100.00;94738.19;5136875;27;20438;-83
2020/12/09 05:22:10;;;;;;;33.70;17.10;;;;;;;5.95;100.00;94715.69;5136898;27;20555;-83
2020/12/09 05:24:38;;;;;;;18.40;11.33;;;;;;;5.98;100.00;94723.28;5136983;27;20438;-83
2020/12/09 05:27:04;;;;;;;17.03;10.23;;;;;;;6.00;100.00;94721.41;5137122;27;20430;-82
2020/12/09 05:29:31;;;;;;;21.23;10.60;;;;;;;6.11;100.00;94721.50;5137027;27;20422;-83
2020/12/09 05:32:02;;;;;;;17.67;11.30;;;;;;;5.94;100.00;94719.22;5136844;27;20944;-83
2020/12/09 05:34:31;;;;;;;28.83;15.47;;;;;;;5.86;100.00;94729.31;5137096;27;20495;-83
2020/12/09 05:36:59;;;;;;;20.60;13.77;;;;;;;5.82;100.00;94718.28;5138933;27;20434;-83
2020/12/09 05:39:25;;;;;;;17.73;13.20;;;;;;;5.78;100.00;94718.56;5139011;27;20479;-83
2020/12/09 05:41:53;;;;;;;13.97;9.77;;;;;;;5.64;100.00;94723.91;5138120;27;20430;-83
2020/12/09 05:44:21;;;;;;;52.00;25.87;;;;;;;5.79;100.00;94720.28;5138821;27;20442;-83
2020/12/09 05:46:57;;;;;;;53.40;30.53;;;;;;;5.71;100.00;94714.75;5137516;27;20477;-83
2020/12/09 05:49:25;;;;;;;41.23;25.70;;;;;;;5.64;100.00;94719.53;5137212;27;20459;-83
2020/12/09 05:52:13;;;;;;;26.53;19.13;;;;;;;5.73;100.00;94724.09;5136602;27;20933;-83
2020/12/09 05:54:43;;;;;;;17.87;12.90;;;;;;;5.85;100.00;94725.06;5136385;27;20465;-83
2020/12/09 05:57:12;;;;;;;17.60;11.00;;;;;;;6.03;100.00;94728.16;5136897;27;20440;-84
2020/12/09 05:59:40;;;;;;;14.40;10.57;;;;;;;6.09;100.00;94732.97;5137445;27;20438;-81
2020/12/09 06:02:15;;;;;;;20.60;13.17;;;;;;;6.19;100.00;94724.38;5140314;27;20540;-86
2020/12/09 06:04:54;;;;;;;22.03;14.07;;;;;;;6.17;100.00;94728.06;5143117;27;20442;-89
2020/12/09 06:07:22;;;;;;;21.80;13.97;;;;;;;5.99;100.00;94721.50;5144370;27;20442;-90
2020/12/09 06:10:19;;;;;;;10.87;8.30;;;;;;;6.11;100.00;94733.69;5141974;27;20444;-88
2020/12/09 06:12:52;;;;;;;25.17;15.10;;;;;;;5.85;100.00;94725.06;5138220;27;20581;-89
2020/12/09 06:15:20;;;;;;;25.17;14.70;;;;;;;6.07;100.00;94725.25;5138185;27;20529;-89
2020/12/09 06:17:47;;;;;;;17.53;11.70;;;;;;;6.25;100.00;94730.09;5137531;27;20465;-87
2020/12/09 06:20:14;;;;;;;16.90;11.10;;;;;;;6.32;100.00;94739.97;5138294;27;20525;-92
2020/12/09 06:22:40;;;;;;;20.40;12.60;;;;;;;6.13;100.00;94743.06;5140483;27;20462;-89
2020/12/09 06:25:08;;;;;;;16.00;11.73;;;;;;;6.14;100.00;94736.91;5137385;27;20471;-89
2020/12/09 06:27:37;;;;;;;11.57;8.03;;;;;;;5.95;100.00;94736.50;5137026;27;20504;-88
2020/12/09 06:30:06;;;;;;;16.50;11.80;;;;;;;5.84;100.00;94734.63;5137379;27;20905;-90
2020/12/09 06:32:46;;;;;;;15.90;11.03;;;;;;;5.71;100.00;94743.38;5137421;27;20437;-89
2020/12/09 06:35:12;;;;;;;17.57;11.63;;;;;;;5.56;100.00;94740.88;5137575;27;20447;-89
2020/12/09 06:37:39;;;;;;;17.43;12.83;;;;;;;5.55;100.00;94741.00;5136506;27;20457;-89
2020/12/09 06:40:10;;;;;;;15.50;10.73;;;;;;;5.45;100.00;94745.97;5136538;27;20929;-90
2020/12/09 06:42:38;;;;;;;16.97;11.00;;;;;;;5.41;100.00;94736.69;5136815;27;20537;-91
2020/12/09 06:45:06;;;;;;;14.23;11.20;;;;;;;5.42;100.00;94743.56;5136958;27;20569;-82
2020/12/09 06:47:33;;;;;;;15.03;8.83;;;;;;;5.48;100.00;94744.91;5135896;27;20453;-85
2020/12/09 06:50:01;;;;;;;16.80;11.10;;;;;;;5.49;100.00;94730.97;5135861;27;20812;-83
2020/12/09 06:52:32;;;;;;;11.63;7.90;;;;;;;5.44;100.00;94739.09;5134950;27;20453;-84
2020/12/09 06:55:00;;;;;;;15.30;11.40;;;;;;;5.53;100.00;94733.28;5135557;27;20844;-84
2020/12/09 06:57:29;;;;;;;12.17;9.43;;;;;;;5.55;100.00;94733.19;5135540;27;20541;-83
2020/12/09 07:00:30;;;;;;;19.10;11.63;;;;;;;5.50;100.00;94750.88;5136558;27;20802;-89
2020/12/09 07:02:56;;;;;;;21.20;12.60;;;;;;;5.43;100.00;94745.22;5135231;28;20433;-83
2020/12/09 07:05:30;;;;;;;16.00;12.30;;;;;;;5.59;100.00;94739.84;5135201;28;20211;-83
2020/12/09 07:08:01;;;;;;;14.00;10.35;;;;;;;5.76;100.00;94738.69;5134077;28;20826;-83
2020/12/09 07:10:30;;;;;;;11.70;8.20;;;;;;;5.71;100.00;94743.38;5135506;28;20283;-86
2020/12/09 07:13:08;;;;;;;17.67;11.20;;;;;;;5.81;100.00;94741.81;5135191;28;20436;-85
2020/12/09 07:15:36;;;;;;;18.40;10.93;;;;;;;5.92;100.00;94731.53;5135134;27;20534;-84
2020/12/09 07:18:03;;;;;;;14.33;9.90;;;;;;;5.88;100.00;94730.03;5135364;28;20462;-83
2020/12/09 07:20:30;;;;;;;27.83;20.48;;;;;;;5.77;100.00;94735.13;5134338;28;20986;-83
2020/12/09 07:22:56;;;;;;;19.87;14.33;;;;;;;5.97;100.00;94728.59;5135419;28;20200;-83
2020/12/09 07:25:23;;;;;;;10.60;8.10;;;;;;;6.03;100.00;94729.00;5135121;28;20479;-84
2020/12/09 07:27:50;;;;;;;12.40;7.30;;;;;;;6.15;100.00;94732.53;5134717;28;20469;-83
2020/12/09 07:30:19;;;;;;;9.23;7.60;;;;;;;6.21;100.00;94722.50;5135110;28;20947;-83
2020/12/09 07:32:49;;;;;;;14.35;10.70;;;;;;;5.81;100.00;94723.59;5134820;28;20433;-86
2020/12/09 07:35:17;;;;;;;15.33;8.90;;;;;;;5.81;100.00;94731.41;5133443;28;20200;-86
2020/12/09 07:37:47;;;;;;;14.03;11.50;;;;;;;5.64;100.00;94731.72;5132278;28;20477;-89
2020/12/09 07:40:28;;;;;;;13.30;9.23;;;;;;;5.53;100.00;94729.84;5136824;28;20548;-89
2020/12/09 07:43:07;;;;;;;12.70;10.37;;;;;;;5.52;100.00;94730.78;5136714;28;20468;-85
2020/12/09 07:45:37;;;;;;;13.03;8.87;;;;;;;5.50;100.00;94730.06;5115999;28;20588;-88
2020/12/09 07:48:08;;;;;;;12.40;10.20;;;;;;;5.63;100.00;94730.06;5116344;28;20446;-89
2020/12/09 07:50:39;;;;;;;16.67;10.17;;;;;;;5.51;100.00;94734.34;5125574;27;20466;-88
2020/12/09 07:53:13;;;;;;;10.57;8.80;;;;;;;5.50;100.00;94728.28;5140338;27;20453;-87
2020/12/09 07:55:49;;;;;;;10.27;7.77;;;;;;;5.66;100.00;94735.88;5139776;27;20478;-86
2020/12/09 07:58:19;;;;;;;16.07;8.30;;;;;;;5.58;100.00;94722.56;5139235;27;20963;-87
2020/12/09 08:00:47;;;;;;;8.03;6.43;;;;;;;5.57;100.00;94721.72;5140630;27;20468;-87
2020/12/09 08:03:22;;;;;;;16.47;11.93;;;;;;;5.63;100.00;94746.50;5146919;27;20685;-88
2020/12/09 08:05:50;;;;;;;10.03;7.93;;;;;;;5.66;100.00;94737.66;5152770;27;20453;-88
2020/12/09 08:08:20;;;;;;;10.37;8.73;;;;;;;5.56;100.00;94738.28;5139652;27;20456;-89
2020/12/09 08:10:47;;;;;;;12.93;10.20;;;;;;;5.67;100.00;94752.31;5140480;27;20821;-89
2020/12/09 08:13:15;;;;;;;9.90;6.63;;;;;;;5.64;100.00;94742.97;5139923;27;21180;-88
2020/12/09 08:15:43;;;;;;;15.67;12.10;;;;;;;5.57;100.00;94737.34;5142869;27;20885;-89
2020/12/09 08:18:21;;;;;;;7.87;6.20;;;;;;;5.65;100.00;94749.00;5211054;22;21873;-86
2020/12/09 08:20:50;;;;;;;26.53;16.57;;;;;;;5.52;100.00;94749.00;5080091;28;20786;-87
2020/12/09 08:23:17;;;;;;;26.40;18.10;;;;;;;5.58;100.00;94743.38;5080536;28;20448;-87
2020/12/09 08:25:46;;;;;;;17.30;11.30;;;;;;;5.67;100.00;94752.31;5081047;28;20499;-88
2020/12/09 08:28:13;;;;;;;11.60;7.60;;;;;;;5.57;100.00;94741.72;5073819;28;20933;-88
2020/12/09 08:30:40;;;;;;;20.87;12.10;;;;;;;5.69;100.00;94750.44;5062042;28;20500;-88
2020/12/09 08:33:16;;;;;;;11.57;8.03;;;;;;;5.56;100.00;94743.50;5059781;28;20437;-88
2020/12/09 08:36:16;;;;;;;17.93;14.27;;;;;;;5.60;100.00;94762.34;5079156;28;20413;-89
2020/12/09 08:38:44;;;;;;;12.87;9.90;;;;;;;5.64;100.00;94755.97;5079255;28;20503;-89
2020/12/09 08:41:13;;;;;;;16.93;7.63;;;;;;;5.64;100.00;94750.78;5080478;28;20859;-87
2020/12/09 08:43:42;;;;;;;15.70;9.23;;;;;;;5.77;100.00;94746.38;5078265;28;20467;-87
2020/12/09 08:46:10;;;;;;;10.80;7.20;;;;;;;5.81;100.00;94736.63;5077534;28;20478;-88
2020/12/09 08:48:41;;;;;;;12.57;7.57;;;;;;;5.73;100.00;94744.94;5078498;28;20834;-87
2020/12/09 08:51:08;;;;;;;18.50;9.23;;;;;;;5.75;100.00;94750.84;5077494;28;20966;-89
2020/12/09 08:53:35;;;;;;;14.03;6.50;;;;;;;5.75;100.00;94755.22;5082824;28;20460;-88
2020/12/09 08:56:06;;;;;;;11.00;7.87;;;;;;;5.82;100.00;94753.91;5078597;28;20436;-87
2020/12/09 08:58:33;;;;;;;10.43;6.83;;;;;;;5.78;100.00;94752.41;5081004;28;20444;-88
2020/12/09 09:01:00;;;;;;;10.07;7.70;;;;;;;5.77;100.00;94727.31;5079081;28;20472;-89
2020/12/09 09:03:27;;;;;;;9.63;7.67;;;;;;;5.86;100.00;94727.53;5079537;28;20433;-89
2020/12/09 09:05:55;;;;;;;10.00;6.55;;;;;;;5.81;100.00;94719.22;5077541;28;20537;-87
2020/12/09 09:08:23;;;;;;;10.93;8.10;;;;;;;5.86;100.00;94729.31;5076491;28;20932;-89
2020/12/09 09:10:50;;;;;;;15.13;8.50;;;;;;;5.89;100.00;94726.50;5076524;28;20438;-86
2020/12/09 09:13:17;;;;;;;17.00;10.57;;;;;;;5.99;100.00;94724.94;5077107;28;20490;-85
2020/12/09 09:15:44;;;;;;;15.83;11.00;;;;;;;6.06;100.00;94720.13;5075969;28;20508;-91
2020/12/09 09:18:10;;;;;;;11.87;9.17;;;;;;;6.11;100.00;94715.47;5075613;28;20535;-85
2020/12/09 09:20:37;;;;;;;13.80;10.27;;;;;;;6.15;100.00;94711.69;5076061;28;20441;-86
2020/12/09 09:23:05;;;;;;;14.50;9.87;;;;;;;5.99;100.00;94711.91;5076103;28;20439;-85
2020/12/09 09:25:33;;;;;;;12.27;8.50;;;;;;;6.06;100.00;94720.13;5075485;28;20506;-85
2020/12/09 09:28:00;;;;;;;12.27;8.63;;;;;;;6.09;100.00;94712.97;5075156;28;20428;-85
2020/12/09 09:30:26;;;;;;;17.20;11.33;;;;;;;6.00;100.00;94712.75;5075999;28;21011;-84
2020/12/09 09:32:53;;;;;;;15.63;10.50;;;;;;;6.22;100.00;94699.91;5075720;28;20808;-85
2020/12/09 09:35:22;;;;;;;15.77;11.80;;;;;;;6.49;100.00;94707.53;5076009;28;20441;-86
2020/12/09 09:37:49;;;;;;;12.27;9.40;;;;;;;6.60;100.00;94697.13;5075571;28;20460;-86
2020/12/09 09:40:15;;;;;;;15.70;10.07;;;;;;;6.78;100.00;94694.97;5075686;28;20460;-86
2020/12/09 09:42:43;;;;;;;8.50;7.60;;;;;;;6.65;100.00;94689.84;5075729;28;20443;-86
2020/12/09 09:45:11;;;;;;;8.93;8.00;;;;;;;6.64;100.00;94677.72;5075351;28;20452;-86
2020/12/09 09:47:38;;;;;;;13.00;9.10;;;;;;;6.61;100.00;94670.13;5076163;28;20997;-85
2020/12/09 09:50:05;;;;;;;12.07;9.00;;;;;;;6.49;100.00;94671.03;5075918;28;20447;-85
2020/12/09 09:52:32;;;;;;;12.03;10.33;;;;;;;6.75;100.00;94675.19;5075607;28;20458;-86
2020/12/09 09:54:58;;;;;;;17.73;10.83;;;;;;;6.88;100.00;94674.28;5075528;28;20444;-86
2020/12/09 09:57:24;;;;;;;10.67;7.67;;;;;;;6.52;99.69;94674.25;5075651;28;20440;-86
2020/12/09 10:00:12;;;;;;;17.47;10.30;;;;;;;6.69;99.58;94667.81;5077637;28;20447;-86
2020/12/09 10:02:50;;;;;;;11.67;8.10;;;;;;;6.52;99.53;94673.41;5079462;28;20453;-84
2020/12/09 10:05:25;;;;;;;10.40;9.30;;;;;;;6.58;99.49;94666.91;5079196;28;20435;-83
2020/12/09 10:07:56;;;;;;;9.13;7.87;;;;;;;6.36;99.75;94675.44;5080775;28;20447;-84
2020/12/09 10:10:29;;;;;;;10.20;8.30;;;;;;;6.29;100.00;94664.63;5080639;28;20452;-85
2020/12/09 10:12:58;;;;;;;11.13;10.03;;;;;;;6.35;100.00;94655.53;5081657;28;20469;-85
2020/12/09 10:15:25;;;;;;;12.17;9.30;;;;;;;6.42;100.00;94664.59;5075019;28;20828;-84
2020/12/09 10:17:51;;;;;;;11.90;9.03;;;;;;;6.38;99.92;94660.56;5075327;28;20510;-85
2020/12/09 10:20:18;;;;;;;12.87;9.50;;;;;;;6.40;100.00;94649.09;5057060;28;20642;-85
2020/12/09 10:22:45;;;;;;;21.03;11.93;;;;;;;6.49;99.80;94647.56;5041177;28;20463;-85
2020/12/09 10:25:11;;;;;;;14.73;10.03;;;;;;;6.59;99.49;94648.56;5081277;28;20447;-86
2020/12/09 10:27:44;;;;;;;11.03;8.40;;;;;;;6.59;98.71;94640.72;5057586;28;20536;-92
2020/12/09 10:30:10;;;;;;;21.40;12.47;;;;;;;6.63;98.29;94646.56;5077685;28;20474;-84
2020/12/09 10:32:38;;;;;;;34.83;18.08;;;;;;;6.72;98.49;94644.13;5082129;28;20457;-83
2020/12/09 10:35:05;;;;;;;32.37;16.57;;;;;;;6.85;98.48;94628.38;5085908;28;20221;-85
2020/12/09 10:37:32;;;;;;;17.23;13.10;;;;;;;6.80;97.39;94620.06;5083228;28;20800;-83
2020/12/09 10:39:59;;;;;;;15.07;13.00;;;;;;;6.84;96.72;94619.72;5079114;28;20479;-81
2020/12/09 10:42:26;;;;;;;15.23;11.67;;;;;;;6.92;96.96;94611.31;5075808;28;20933;-80
2020/12/09 10:44:53;;;;;;;12.57;10.07;;;;;;;6.91;96.53;94609.66;5073566;28;20455;-82
2020/12/09 10:47:20;;;;;;;12.90;8.90;;;;;;;6.85;96.22;94615.34;5074611;28;20507;-86
2020/12/09 10:49:47;;;;;;;12.40;10.00;;;;;;;6.89;96.78;94602.91;5074041;28;20441;-86
2020/12/09 10:52:15;;;;;;;16.93;13.30;;;;;;;6.91;96.47;94601.84;5075775;28;20464;-85
2020/12/09 10:54:42;;;;;;;10.00;7.90;;;;;;;6.76;96.26;94601.22;5076013;28;20444;-86
2020/12/09 10:57:12;;;;;;;12.33;9.20;;;;;;;6.52;98.07;94596.03;5075839;28;20445;-86
2020/12/09 10:59:39;;;;;;;16.30;11.03;;;;;;;6.40;98.62;94588.31;5055523;28;20453;-87
2020/12/09 11:02:06;;;;;;;10.07;7.20;;;;;;;6.26;99.83;94593.69;5057643;28;20472;-86
2020/12/09 11:04:34;;;;;;;10.20;8.10;;;;;;;6.25;99.63;94597.22;5076332;28;20450;-86
2020/12/09 11:07:07;;;;;;;12.43;8.70;;;;;;;6.10;100.00;94592.19;5075782;28;21070;-86
2020/12/09 11:09:35;;;;;;;12.30;9.20;;;;;;;6.09;100.00;94590.53;5073323;28;20524;-85
2020/12/09 11:12:03;;;;;;;9.70;8.00;;;;;;;6.16;100.00;94594.34;5072412;28;20440;-86
2020/12/09 11:14:33;;;;;;;9.73;8.73;;;;;;;6.15;100.00;94590.09;5072333;28;21026;-87
2020/12/09 11:17:33;;;;;;;12.30;8.57;;;;;;;6.07;100.00;94602.84;5072263;28;20884;-84
2020/12/09 11:20:01;;;;;;;8.00;6.17;;;;;;;5.90;100.00;94579.78;5065787;28;20522;-86
2020/12/09 11:22:28;;;;;;;9.77;6.83;;;;;;;5.90;100.00;94598.81;5069376;28;20441;-88
2020/12/09 11:24:55;;;;;;;10.10;8.63;;;;;;;5.95;100.00;94590.69;5076407;28;20448;-86